EGHQ

Newquay Cornwall Airport

Newquay, United Kingdom
TAF EGHQ 251403Z 2515/2521 17006KT 9999 FEW030
Issued Valid From Valid To
Sep-25 @ 14:03 UTC
(an hour ago)
Sep-25 @ 15:00 UTC
(22 minutes ago)
Sep-25 @ 21:00 UTC
(in 6 hours)
Sep-25 @ 15:00 to Sep-25 @ 21:00
TAF EGHQ 251403Z 2515/2521 17006KT 9999 FEW030
Wind Visibility Clouds
170° at 6 knots 10,000+ meters
  • Few at 3,000' AGL
TAF EGHQ 251403Z 2515/2521 17006KT 9999 FEW030
Issued Sep-25 @ 14:03 UTC
(an hour ago)
Valid From Sep-25 @ 15:00 UTC
(22 minutes ago)
Valid To Sep-25 @ 21:00 UTC
(in 6 hours)
Sep-25 @ 15:00 - Sep-25 @ 21:00
Wind Visibility
170° at 6 knots 10,000+ meters
Clouds
  • Few at 3,000' AGL